Hacksneck, Virginia
Current Conditions -  °F | °C
As of 10:35 PM on Saturday 22 Nov 2014 (Local Time) from KMFV Reporting Station
Clear Clear  
Wind Chill: 33°   Ceiling: Unl
Heat Index: 39°   Visibility: 10mi
Dew Point: 25°   Wind: 9mph
Humidity: 56%   Direction: 210°SSW
Pressure: 30.33"   Gusts: NA
Location:  37.65°N, 75.87°W
Report Text: KMFV 230335Z AUTO 21008KT 10SM CLR 04/M04 A3033 RMK AO2
Loading
Personal Weather Stations






























Interactive Weather Map New forecast layout! Learn more

10-Day Weather Forecast

Advertisements
Track Severe Weather on mobile